Time;durP1;ratioP1;P1;durP2;ratioP2;P2;SDS_P1;SDS_P2;PMS_P1;PMS_P2;Temp;Humidity;BMP_temperature;BMP_pressure;BME280_temperature;BME280_humidity;BME280_pressure;Samples;Min_cycle;Max_cycle;Signal;HPM_P1;HPM_P2
2023/10/08 00:00:46;;;;;;;0.80;0.77;;;12.70;99.90;;;;;;5052895;28;20430;-60
2023/10/08 00:03:15;;;;;;;0.80;0.80;;;12.70;99.90;;;;;;5053041;28;20447;-60
2023/10/08 00:05:42;;;;;;;1.10;0.70;;;12.60;99.90;;;;;;5053253;28;20447;-60
2023/10/08 00:08:10;;;;;;;1.33;0.50;;;12.60;99.90;;;;;;5053045;28;20439;-60
2023/10/08 00:10:39;;;;;;;0.70;0.50;;;12.50;99.90;;;;;;5053012;28;20452;-59
2023/10/08 00:13:07;;;;;;;0.50;0.50;;;12.50;99.90;;;;;;5052832;28;20445;-62
2023/10/08 00:15:36;;;;;;;0.53;0.40;;;12.40;99.90;;;;;;5052728;28;20476;-61
2023/10/08 00:18:04;;;;;;;0.70;0.50;;;12.30;99.90;;;;;;5052479;28;20528;-60
2023/10/08 00:20:42;;;;;;;0.90;0.50;;;12.30;99.90;;;;;;5052741;28;20528;-60
2023/10/08 00:23:09;;;;;;;0.70;0.50;;;12.20;99.90;;;;;;5052771;28;20508;-59
2023/10/08 00:25:40;;;;;;;1.07;0.40;;;12.20;99.90;;;;;;5052978;28;20450;-60
2023/10/08 00:28:11;;;;;;;0.60;0.50;;;12.20;99.90;;;;;;5055969;28;20426;-60
2023/10/08 00:30:40;;;;;;;0.70;0.53;;;12.10;99.90;;;;;;5057018;28;20469;-59
2023/10/08 00:33:08;;;;;;;0.60;0.40;;;12.10;99.90;;;;;;5057484;28;20445;-60
2023/10/08 00:35:41;;;;;;;0.70;0.40;;;12.00;99.90;;;;;;5057375;28;20440;-61
2023/10/08 00:38:14;;;;;;;0.60;0.50;;;12.00;99.90;;;;;;5058086;28;20465;-60
2023/10/08 00:40:45;;;;;;;0.50;0.37;;;11.90;99.90;;;;;;5057259;28;20429;-60
2023/10/08 00:43:27;;;;;;;1.13;0.60;;;11.90;99.90;;;;;;5057274;28;20426;-60
2023/10/08 00:45:54;;;;;;;0.50;0.40;;;11.80;99.90;;;;;;5056976;28;20444;-60
2023/10/08 00:48:28;;;;;;;0.70;0.40;;;11.80;99.90;;;;;;5058070;28;20800;-60
2023/10/08 00:51:09;;;;;;;1.17;0.70;;;11.70;99.90;;;;;;5057127;28;20432;-61
2023/10/08 00:53:39;;;;;;;0.50;0.37;;;11.70;99.90;;;;;;5057603;28;20557;-60
2023/10/08 00:56:12;;;;;;;0.77;0.40;;;11.60;99.90;;;;;;5059660;28;20420;-59
2023/10/08 00:58:40;;;;;;;0.70;0.50;;;11.60;99.90;;;;;;5059783;28;20556;-60
2023/10/08 01:01:10;;;;;;;0.73;0.50;;;11.60;99.90;;;;;;5057164;28;20491;-60
2023/10/08 01:03:39;;;;;;;0.50;0.40;;;11.60;99.90;;;;;;5056672;28;20460;-61
2023/10/08 01:06:10;;;;;;;0.60;0.57;;;11.60;99.90;;;;;;5056875;28;20448;-60
2023/10/08 01:08:38;;;;;;;0.57;0.50;;;11.50;99.90;;;;;;5056819;28;20915;-60
2023/10/08 01:11:18;;;;;;;0.60;0.53;;;11.50;99.90;;;;;;5056772;28;20505;-60
2023/10/08 01:13:46;;;;;;;0.80;0.60;;;11.40;99.90;;;;;;5056724;28;20467;-60
2023/10/08 01:16:14;;;;;;;1.93;0.80;;;11.40;99.90;;;;;;5056755;28;20944;-61
2023/10/08 01:18:50;;;;;;;1.40;0.90;;;11.40;99.90;;;;;;5056235;28;20483;-60
2023/10/08 01:21:33;;;;;;;4.80;1.37;;;11.20;99.90;;;;;;5056271;28;20432;-60
2023/10/08 01:24:05;;;;;;;3.70;1.10;;;11.10;99.90;;;;;;5056491;28;20468;-59
2023/10/08 01:26:32;;;;;;;1.33;0.70;;;11.00;99.90;;;;;;5056299;28;20519;-60
2023/10/08 01:29:03;;;;;;;2.33;0.80;;;10.90;99.90;;;;;;5056125;28;20972;-60
2023/10/08 01:31:30;;;;;;;5.00;1.07;;;10.90;99.90;;;;;;5056783;28;20428;-59
2023/10/08 01:33:57;;;;;;;3.90;1.00;;;10.90;99.90;;;;;;5055750;28;20978;-59
2023/10/08 01:36:25;;;;;;;1.97;0.90;;;10.80;99.90;;;;;;5057475;28;20471;-59
2023/10/08 01:38:54;;;;;;;2.33;1.00;;;10.90;99.90;;;;;;5057091;28;20482;-59
2023/10/08 01:41:29;;;;;;;2.87;0.97;;;10.90;99.90;;;;;;5057620;28;20459;-59
2023/10/08 01:43:57;;;;;;;1.00;0.80;;;10.90;99.90;;;;;;5056420;28;20550;-59
2023/10/08 01:46:26;;;;;;;2.17;0.90;;;10.90;99.90;;;;;;5056432;28;20445;-60
2023/10/08 01:49:03;;;;;;;3.67;1.87;;;10.90;99.90;;;;;;5058487;28;20522;-59
2023/10/08 01:51:37;;;;;;;2.70;1.20;;;10.90;99.90;;;;;;5056576;28;20428;-63
2023/10/08 01:54:09;;;;;;;1.33;1.23;;;11.00;99.90;;;;;;5055899;28;20507;-60
2023/10/08 01:56:41;;;;;;;3.07;1.00;;;11.00;99.90;;;;;;5055569;28;20433;-59
2023/10/08 01:59:08;;;;;;;3.43;0.80;;;10.90;99.90;;;;;;5055662;28;20460;-59
2023/10/08 02:01:35;;;;;;;4.07;1.23;;;10.90;99.90;;;;;;5055798;28;20445;-60
2023/10/08 02:04:02;;;;;;;4.70;1.10;;;11.00;99.90;;;;;;5056175;28;20460;-60
2023/10/08 02:06:30;;;;;;;1.40;1.07;;;11.00;99.90;;;;;;5055935;28;20442;-59
2023/10/08 02:08:58;;;;;;;3.60;0.93;;;11.00;99.90;;;;;;5056817;28;20849;-60
2023/10/08 02:11:27;;;;;;;3.10;1.20;;;11.00;99.90;;;;;;5055762;28;20487;-59
2023/10/08 02:13:55;;;;;;;3.70;1.20;;;11.00;99.90;;;;;;5056276;28;20475;-59
2023/10/08 02:16:22;;;;;;;5.30;1.50;;;11.00;99.90;;;;;;5056291;28;20445;-59
2023/10/08 02:18:51;;;;;;;3.37;1.50;;;11.10;99.90;;;;;;5055954;28;20498;-60
2023/10/08 02:21:18;;;;;;;4.63;1.40;;;11.10;99.90;;;;;;5058303;28;20446;-59
2023/10/08 02:23:44;;;;;;;3.10;1.43;;;11.10;99.90;;;;;;5056780;28;20470;-59
2023/10/08 02:26:12;;;;;;;1.53;1.10;;;11.10;99.90;;;;;;5056638;28;20432;-59
2023/10/08 02:28:38;;;;;;;1.17;0.87;;;11.20;99.90;;;;;;5055108;28;20451;-60
2023/10/08 02:31:08;;;;;;;3.03;1.43;;;11.10;99.90;;;;;;5057158;28;20455;-60
2023/10/08 02:33:35;;;;;;;2.07;1.53;;;11.10;99.90;;;;;;5056219;28;20487;-59
2023/10/08 02:36:04;;;;;;;4.10;1.33;;;11.10;99.90;;;;;;5055638;28;20429;-60
2023/10/08 02:38:37;;;;;;;3.30;1.20;;;11.20;99.90;;;;;;5055468;28;20480;-60
2023/10/08 02:41:06;;;;;;;3.17;0.97;;;11.10;99.90;;;;;;5055536;28;20432;-60
2023/10/08 02:43:34;;;;;;;1.60;1.20;;;11.10;99.90;;;;;;5058926;28;20510;-59
2023/10/08 02:46:00;;;;;;;3.13;1.60;;;11.10;99.90;;;;;;5056095;28;20445;-60
2023/10/08 02:48:29;;;;;;;1.90;1.30;;;11.10;99.90;;;;;;5057547;28;20441;-61
2023/10/08 02:51:06;;;;;;;2.50;1.20;;;11.10;99.90;;;;;;5055575;28;20449;-60
2023/10/08 02:53:34;;;;;;;3.53;1.40;;;11.10;99.90;;;;;;5055549;28;20550;-60
2023/10/08 02:56:00;;;;;;;7.00;1.80;;;11.10;99.90;;;;;;5056012;28;20447;-60
2023/10/08 02:58:27;;;;;;;1.40;0.90;;;11.20;99.90;;;;;;5055550;28;20476;-59
2023/10/08 03:00:54;;;;;;;2.27;1.00;;;11.20;99.90;;;;;;5055080;28;20444;-59
2023/10/08 03:03:24;;;;;;;2.40;1.00;;;11.20;99.90;;;;;;5055516;28;20450;-59
2023/10/08 03:05:56;;;;;;;2.93;1.10;;;11.20;99.90;;;;;;5056209;28;20585;-60
2023/10/08 03:08:23;;;;;;;2.00;1.17;;;11.20;99.90;;;;;;5055204;28;20428;-60
2023/10/08 03:10:55;;;;;;;5.57;2.17;;;11.20;99.90;;;;;;5054903;28;20447;-60
2023/10/08 03:13:22;;;;;;;1.83;1.00;;;11.20;99.90;;;;;;5054407;28;20425;-59
2023/10/08 03:16:07;;;;;;;2.60;0.83;;;11.20;99.90;;;;;;5054573;28;20442;-60
2023/10/08 03:18:36;;;;;;;2.47;1.17;;;11.30;99.90;;;;;;5054379;28;20463;-60
2023/10/08 03:21:13;;;;;;;6.10;1.90;;;11.30;99.90;;;;;;5054425;28;20449;-59
2023/10/08 03:23:45;;;;;;;1.50;0.90;;;11.30;99.90;;;;;;5054075;28;20570;-60
2023/10/08 03:26:32;;;;;;;3.30;1.13;;;11.30;99.90;;;;;;5054211;28;20428;-60
2023/10/08 03:29:05;;;;;;;2.60;0.90;;;11.30;99.90;;;;;;5054464;28;20793;-60
2023/10/08 03:31:49;;;;;;;1.80;1.00;;;11.30;99.90;;;;;;5054383;28;20428;-59
2023/10/08 03:34:18;;;;;;;3.53;1.23;;;11.30;99.90;;;;;;5054500;28;20857;-60
2023/10/08 03:36:49;;;;;;;2.33;1.20;;;11.30;99.90;;;;;;5054669;28;20453;-59
2023/10/08 03:39:18;;;;;;;2.63;1.07;;;11.30;99.90;;;;;;5053963;28;20468;-60
2023/10/08 03:41:59;;;;;;;2.13;1.00;;;11.30;99.90;;;;;;5054934;28;20445;-59
2023/10/08 03:44:29;;;;;;;2.80;1.70;;;11.30;99.90;;;;;;5054249;28;20468;-60
2023/10/08 03:46:57;;;;;;;3.33;1.13;;;11.30;99.90;;;;;;5054238;28;20456;-60
2023/10/08 03:49:26;;;;;;;3.10;0.80;;;11.20;99.90;;;;;;5054909;28;20791;-60
2023/10/08 03:51:57;;;;;;;1.50;0.80;;;11.30;99.90;;;;;;5055057;28;20455;-60
2023/10/08 03:54:34;;;;;;;1.53;0.83;;;11.30;99.90;;;;;;5054020;28;20547;-60
2023/10/08 03:57:04;;;;;;;2.97;0.90;;;11.30;99.90;;;;;;5053690;28;20996;-59
2023/10/08 03:59:31;;;;;;;6.60;1.20;;;11.30;99.90;;;;;;5053440;28;20480;-58
2023/10/08 04:02:09;;;;;;;4.47;1.13;;;11.30;99.90;;;;;;5066702;22;20515;-56
2023/10/08 04:07:39;;;;;;;0.90;0.67;;;11.30;99.90;;;;;;5032738;28;20503;-57
2023/10/08 04:12:20;;;;;;;3.20;1.07;;;11.30;99.90;;;;;;5090473;28;20612;-58
2023/10/08 04:14:47;;;;;;;3.57;1.17;;;11.30;99.90;;;;;;5090826;28;20460;-58
2023/10/08 04:17:22;;;;;;;2.10;1.00;;;11.30;99.90;;;;;;5090682;28;20802;-58
2023/10/08 04:19:48;;;;;;;2.47;1.20;;;11.30;99.90;;;;;;5090477;28;20429;-58
2023/10/08 04:22:17;;;;;;;3.13;0.90;;;11.30;99.90;;;;;;5090259;28;20992;-58
2023/10/08 04:24:45;;;;;;;1.80;1.23;;;11.20;99.90;;;;;;5090689;28;20454;-58
2023/10/08 04:27:14;;;;;;;2.93;1.30;;;11.30;99.90;;;;;;5090476;28;20442;-58
2023/10/08 04:29:43;;;;;;;3.97;1.30;;;11.20;99.90;;;;;;5090283;28;20948;-58
2023/10/08 04:32:12;;;;;;;3.80;1.33;;;11.20;99.90;;;;;;5090206;28;20532;-57
2023/10/08 04:34:44;;;;;;;2.03;1.20;;;11.20;99.90;;;;;;5090242;28;20454;-58
2023/10/08 04:37:12;;;;;;;1.20;1.00;;;11.20;99.90;;;;;;5090735;28;20427;-58
2023/10/08 04:39:40;;;;;;;2.20;1.17;;;11.20;99.90;;;;;;5090218;28;20453;-58
2023/10/08 04:42:10;;;;;;;5.47;1.20;;;11.20;99.90;;;;;;5089990;28;20841;-58
2023/10/08 04:44:39;;;;;;;3.63;1.40;;;11.20;99.90;;;;;;5090290;28;20433;-57
2023/10/08 04:47:27;;;;;;;4.20;1.40;;;11.20;99.90;;;;;;5090603;28;20443;-58
2023/10/08 04:49:56;;;;;;;1.77;1.00;;;11.20;99.90;;;;;;5089867;28;20469;-58
2023/10/08 04:52:25;;;;;;;2.40;0.80;;;11.20;99.90;;;;;;5089845;28;20493;-58
2023/10/08 04:54:54;;;;;;;3.23;1.37;;;11.20;99.90;;;;;;5089710;28;20482;-58
2023/10/08 04:57:22;;;;;;;4.10;1.20;;;11.20;99.90;;;;;;5089840;28;20451;-58
2023/10/08 04:59:50;;;;;;;3.00;1.20;;;11.20;99.90;;;;;;5089560;28;20442;-58
2023/10/08 05:02:22;;;;;;;5.60;1.50;;;11.20;99.90;;;;;;5089070;28;20486;-58
2023/10/08 05:05:07;;;;;;;3.93;1.30;;;11.10;99.90;;;;;;5089759;28;20434;-58
2023/10/08 05:13:16;;;;;;;2.40;1.23;;;11.10;99.90;;;;;;5089878;28;20485;-58
2023/10/08 05:16:01;;;;;;;4.00;1.07;;;11.10;99.90;;;;;;5089536;28;20872;-58
2023/10/08 05:18:54;;;;;;;3.27;1.40;;;11.10;99.90;;;;;;5089897;28;20426;-59
2023/10/08 05:21:28;;;;;;;2.17;1.20;;;11.10;99.90;;;;;;5089943;28;20543;-58
2023/10/08 05:24:08;;;;;;;5.90;1.40;;;11.10;99.90;;;;;;5075726;28;20428;-58
2023/10/08 05:26:49;;;;;;;4.07;1.50;;;11.10;99.90;;;;;;5076873;28;20427;-58
2023/10/08 05:35:30;;;;;;;4.23;1.60;;;11.10;99.90;;;;;;5068477;28;20577;-58
2023/10/08 05:37:47;;;;;;;3.50;1.80;;;11.10;99.90;;;;;;5075810;28;20440;-57
2023/10/08 05:40:37;;;;;;;4.43;1.83;;;11.10;99.90;;;;;;5077272;28;20449;-57
2023/10/08 05:43:22;;;;;;;5.67;1.57;;;11.10;99.90;;;;;;5077737;28;20512;-57
2023/10/08 05:46:19;;;;;;;2.43;1.30;;;11.10;99.90;;;;;;5076949;28;20928;-57
2023/10/08 05:48:45;;;;;;;5.70;1.50;;;11.10;99.90;;;;;;5076546;28;20480;-58
2023/10/08 05:51:23;;;;;;;2.83;1.30;;;11.10;99.90;;;;;;5074895;28;20981;-57
2023/10/08 05:53:55;;;;;;;2.33;1.40;;;11.20;99.90;;;;;;5075428;28;20432;-58
2023/10/08 05:56:29;;;;;;;3.27;1.73;;;11.20;99.90;;;;;;5075125;28;20433;-57
2023/10/08 05:59:14;;;;;;;7.37;1.50;;;11.20;99.90;;;;;;5075277;28;20848;-56
2023/10/08 06:01:45;;;;;;;5.20;2.00;;;11.20;99.90;;;;;;5075054;28;20540;-57
2023/10/08 06:04:42;;;;;;;4.03;1.93;;;11.20;99.90;;;;;;5075448;28;20524;-58
2023/10/08 06:07:33;;;;;;;7.73;1.60;;;11.30;99.90;;;;;;5074342;28;20435;-58
2023/10/08 06:10:02;;;;;;;5.37;1.67;;;11.30;99.90;;;;;;5074455;28;20908;-57
2023/10/08 06:12:30;;;;;;;6.83;2.73;;;11.30;99.90;;;;;;5074756;28;20482;-58
2023/10/08 06:15:12;;;;;;;4.33;1.70;;;11.30;99.90;;;;;;5074470;28;20439;-57
2023/10/08 06:17:56;;;;;;;4.83;1.77;;;11.30;99.90;;;;;;5074619;28;20426;-57
2023/10/08 06:20:26;;;;;;;2.50;1.70;;;11.40;99.90;;;;;;5074661;28;20793;-57
2023/10/08 06:23:01;;;;;;;2.77;1.70;;;11.40;99.90;;;;;;5074582;28;20470;-57
2023/10/08 06:25:28;;;;;;;4.10;2.00;;;11.50;99.90;;;;;;5074332;28;20831;-57
2023/10/08 06:27:57;;;;;;;2.30;1.40;;;11.50;99.90;;;;;;5074413;28;20519;-57
2023/10/08 06:30:28;;;;;;;4.97;1.87;;;11.50;99.90;;;;;;5074357;28;20522;-57
2023/10/08 06:32:56;;;;;;;2.77;1.90;;;11.60;99.90;;;;;;5074427;28;20561;-58
2023/10/08 06:35:25;;;;;;;5.03;2.10;;;11.60;99.90;;;;;;5073706;28;20439;-57
2023/10/08 06:37:55;;;;;;;4.90;2.20;;;11.60;99.90;;;;;;5074303;28;20444;-57
2023/10/08 06:40:42;;;;;;;3.77;2.30;;;11.70;99.90;;;;;;5075581;28;20433;-57
2023/10/08 06:43:14;;;;;;;3.67;2.00;;;11.70;99.90;;;;;;5074105;28;20468;-57
2023/10/08 06:45:41;;;;;;;3.63;2.10;;;11.70;99.90;;;;;;5073970;28;20607;-59
2023/10/08 06:48:08;;;;;;;3.97;2.03;;;11.70;99.90;;;;;;5073932;28;20450;-57
2023/10/08 06:50:35;;;;;;;6.00;2.67;;;11.80;99.90;;;;;;5073674;28;20871;-57
2023/10/08 06:53:06;;;;;;;5.30;2.40;;;11.80;99.90;;;;;;5073962;28;20455;-57
2023/10/08 06:55:35;;;;;;;6.60;2.30;;;11.80;99.90;;;;;;5075224;28;20435;-57
2023/10/08 06:58:05;;;;;;;6.87;2.50;;;11.90;99.90;;;;;;5074008;28;20497;-57
2023/10/08 07:00:39;;;;;;;5.30;2.40;;;12.00;99.90;;;;;;5074526;28;20444;-58
2023/10/08 07:03:10;;;;;;;5.60;2.63;;;12.10;99.90;;;;;;5073985;28;20462;-57
2023/10/08 07:05:40;;;;;;;3.93;2.40;;;12.10;99.90;;;;;;5073962;28;20451;-57
2023/10/08 07:08:08;;;;;;;3.80;2.70;;;12.20;99.90;;;;;;5074220;28;20463;-57
2023/10/08 07:10:36;;;;;;;2.97;2.13;;;12.10;99.90;;;;;;5073280;28;20456;-56
2023/10/08 07:13:06;;;;;;;3.77;2.50;;;12.20;99.90;;;;;;5073844;28;20445;-57
2023/10/08 07:15:38;;;;;;;2.73;2.17;;;12.10;99.90;;;;;;5075104;28;20424;-57
2023/10/08 07:18:12;;;;;;;4.93;2.63;;;12.10;99.90;;;;;;5074451;28;20421;-56
2023/10/08 07:20:41;;;;;;;3.70;2.70;;;12.20;99.90;;;;;;5074692;28;20514;-56
2023/10/08 07:23:18;;;;;;;2.60;2.00;;;12.30;99.90;;;;;;5073883;28;20465;-57
2023/10/08 07:25:51;;;;;;;2.57;2.30;;;12.40;99.90;;;;;;5074394;28;20426;-57
2023/10/08 07:28:19;;;;;;;5.43;2.53;;;12.50;99.90;;;;;;5073823;28;20429;-58
2023/10/08 07:30:47;;;;;;;3.87;2.87;;;12.60;99.90;;;;;;5075286;28;20443;-58
2023/10/08 07:33:18;;;;;;;5.20;2.57;;;12.70;99.90;;;;;;5074785;28;20485;-57
2023/10/08 07:35:52;;;;;;;3.77;2.43;;;12.80;99.90;;;;;;5073753;28;20483;-56
2023/10/08 07:38:21;;;;;;;3.13;2.47;;;12.90;99.90;;;;;;5073143;28;20932;-58
2023/10/08 07:40:49;;;;;;;3.90;2.73;;;12.90;99.90;;;;;;5073383;28;20446;-58
2023/10/08 07:43:20;;;;;;;5.00;2.30;;;12.90;99.90;;;;;;5073372;28;20482;-58
2023/10/08 07:45:47;;;;;;;4.43;2.57;;;12.80;99.90;;;;;;5073159;28;20455;-58
2023/10/08 07:48:15;;;;;;;3.20;2.40;;;12.80;99.90;;;;;;5073351;28;20783;-57
2023/10/08 07:50:46;;;;;;;7.30;2.73;;;12.80;99.90;;;;;;5073304;28;20477;-56
2023/10/08 07:53:18;;;;;;;5.00;3.73;;;12.90;99.90;;;;;;5073062;28;20514;-57
2023/10/08 07:55:47;;;;;;;4.47;3.50;;;13.00;99.90;;;;;;5075580;28;20423;-56
2023/10/08 07:58:16;;;;;;;4.80;3.50;;;13.00;99.90;;;;;;5073418;28;20936;-57
2023/10/08 08:00:51;;;;;;;4.43;3.80;;;13.00;99.90;;;;;;5072986;28;20453;-56
2023/10/08 08:03:19;;;;;;;6.37;3.43;;;13.00;99.90;;;;;;5073266;28;20426;-56
2023/10/08 08:05:46;;;;;;;4.53;3.60;;;13.10;99.90;;;;;;5072967;28;20806;-57
2023/10/08 08:08:17;;;;;;;7.23;4.00;;;13.10;99.90;;;;;;5073224;28;20446;-56
2023/10/08 08:10:44;;;;;;;5.30;4.13;;;13.20;99.90;;;;;;5073095;28;20845;-59
2023/10/08 08:13:12;;;;;;;4.67;3.27;;;13.30;99.90;;;;;;5072715;28;20492;-57
2023/10/08 08:15:43;;;;;;;6.90;4.37;;;13.30;99.90;;;;;;5073154;28;20438;-57
2023/10/08 08:18:22;;;;;;;5.00;4.27;;;13.40;99.90;;;;;;5072624;28;20947;-56
2023/10/08 08:20:49;;;;;;;4.93;4.30;;;13.40;99.90;;;;;;5072870;28;20505;-57
2023/10/08 08:23:17;;;;;;;4.27;3.63;;;13.50;99.90;;;;;;5072949;28;20438;-57
2023/10/08 08:25:55;;;;;;;4.10;3.17;;;13.60;99.90;;;;;;5072972;28;20445;-56
2023/10/08 08:28:24;;;;;;;5.03;3.00;;;13.70;99.90;;;;;;5072989;28;20457;-57
2023/10/08 08:30:55;;;;;;;6.00;3.07;;;13.80;99.90;;;;;;5072704;28;20814;-56
2023/10/08 08:33:23;;;;;;;5.13;2.83;;;13.80;99.90;;;;;;5073170;28;20466;-58
2023/10/08 08:35:59;;;;;;;6.00;3.53;;;13.90;99.90;;;;;;5072950;28;20446;-57
2023/10/08 08:38:26;;;;;;;4.83;3.10;;;14.00;99.90;;;;;;5073049;28;21008;-59
2023/10/08 08:41:06;;;;;;;7.10;2.97;;;14.10;99.90;;;;;;5072902;28;20820;-57
2023/10/08 08:43:35;;;;;;;6.80;2.90;;;14.20;99.90;;;;;;5072866;28;20964;-58
2023/10/08 08:46:06;;;;;;;6.60;2.53;;;14.30;99.90;;;;;;5072855;28;20442;-59
2023/10/08 08:48:35;;;;;;;3.50;2.50;;;14.30;99.90;;;;;;5073173;28;20486;-58
2023/10/08 08:51:02;;;;;;;9.70;3.27;;;14.30;99.90;;;;;;5073085;28;20435;-58
2023/10/08 08:53:29;;;;;;;4.40;2.97;;;14.30;99.90;;;;;;5072673;28;20479;-59
2023/10/08 08:55:57;;;;;;;4.33;3.47;;;14.20;99.90;;;;;;5072752;28;20815;-57
2023/10/08 08:58:26;;;;;;;4.13;3.03;;;14.20;99.90;;;;;;5075094;28;20500;-56
2023/10/08 09:00:53;;;;;;;7.50;3.60;;;14.40;99.90;;;;;;5075946;28;20435;-58
2023/10/08 09:03:30;;;;;;;4.47;2.90;;;14.50;99.90;;;;;;5076187;28;20488;-58
2023/10/08 09:05:57;;;;;;;6.40;2.70;;;14.60;99.90;;;;;;5076737;28;20787;-58
2023/10/08 09:08:24;;;;;;;7.43;2.13;;;14.50;99.90;;;;;;5077118;28;20442;-58
2023/10/08 09:10:56;;;;;;;7.03;3.13;;;14.50;99.90;;;;;;5075260;28;20505;-57
2023/10/08 09:13:24;;;;;;;6.33;2.60;;;14.50;99.90;;;;;;5075818;28;20470;-60
2023/10/08 09:15:53;;;;;;;4.17;3.10;;;14.40;99.90;;;;;;5076199;28;20504;-60
2023/10/08 09:18:27;;;;;;;6.87;2.80;;;14.40;99.90;;;;;;5075806;28;20447;-60
2023/10/08 09:20:55;;;;;;;4.00;2.60;;;14.40;99.90;;;;;;5075890;28;20431;-60
2023/10/08 09:23:23;;;;;;;5.90;3.20;;;14.60;99.90;;;;;;5075685;28;20435;-60
2023/10/08 09:25:51;;;;;;;4.03;3.03;;;14.90;99.90;;;;;;5075714;28;20443;-59
2023/10/08 09:28:19;;;;;;;4.53;3.23;;;15.20;99.90;;;;;;5076211;28;20447;-60
2023/10/08 09:30:48;;;;;;;4.60;3.23;;;15.40;99.90;;;;;;5075797;28;20445;-60
2023/10/08 09:33:15;;;;;;;7.63;2.30;;;15.50;99.90;;;;;;5075624;28;20471;-59
2023/10/08 09:35:44;;;;;;;5.43;2.37;;;15.40;99.90;;;;;;5075919;28;20447;-58
2023/10/08 09:38:11;;;;;;;2.83;1.50;;;15.30;99.90;;;;;;5077955;28;20489;-60
2023/10/08 09:40:39;;;;;;;5.43;2.17;;;15.10;99.90;;;;;;5075462;28;20441;-60
2023/10/08 09:43:08;;;;;;;6.93;2.33;;;14.80;99.90;;;;;;5076183;28;20989;-60
2023/10/08 09:45:36;;;;;;;7.47;2.40;;;14.70;99.90;;;;;;5075993;28;20439;-62
2023/10/08 09:48:06;;;;;;;3.50;2.73;;;14.60;99.90;;;;;;5075514;28;20540;-59
2023/10/08 09:50:37;;;;;;;4.40;2.10;;;14.50;99.90;;;;;;5075022;28;20432;-60
2023/10/08 09:53:15;;;;;;;5.77;2.13;;;14.40;99.90;;;;;;5075397;28;20494;-59
2023/10/08 09:55:45;;;;;;;3.90;1.97;;;14.50;99.90;;;;;;5075103;28;20438;-60
2023/10/08 09:58:14;;;;;;;4.83;2.10;;;14.70;99.90;;;;;;5075193;28;20534;-59
2023/10/08 10:00:44;;;;;;;6.10;1.80;;;14.90;99.90;;;;;;5076274;28;20447;-59
2023/10/08 10:03:12;;;;;;;8.80;3.07;;;15.10;99.90;;;;;;5076610;28;20431;-59
2023/10/08 10:05:40;;;;;;;3.60;1.83;;;15.30;99.90;;;;;;5075706;28;20969;-60
2023/10/08 10:08:09;;;;;;;5.63;2.10;;;15.50;99.70;;;;;;5075184;28;20474;-59
2023/10/08 10:10:38;;;;;;;4.57;1.77;;;15.80;98.90;;;;;;5075417;28;20467;-59
2023/10/08 10:13:07;;;;;;;11.63;1.77;;;16.10;97.90;;;;;;5074510;28;20492;-59
2023/10/08 10:15:35;;;;;;;3.70;1.47;;;16.40;95.70;;;;;;5074981;28;20437;-58
2023/10/08 10:18:13;;;;;;;5.60;1.40;;;16.50;93.00;;;;;;5074950;28;20438;-58
2023/10/08 10:20:41;;;;;;;5.40;1.50;;;16.40;91.10;;;;;;5075489;28;20430;-59
2023/10/08 10:23:39;;;;;;;9.23;1.87;;;16.50;90.10;;;;;;5074500;28;20477;-59
2023/10/08 10:26:23;;;;;;;3.80;1.50;;;16.40;86.70;;;;;;5076172;28;20451;-60
2023/10/08 10:29:21;;;;;;;4.87;1.43;;;16.40;85.70;;;;;;5075490;28;20435;-59
2023/10/08 10:31:49;;;;;;;3.33;1.50;;;16.30;85.20;;;;;;5075895;28;20549;-60
2023/10/08 10:34:19;;;;;;;7.13;1.20;;;16.10;84.00;;;;;;5076146;28;20484;-60
2023/10/08 10:36:49;;;;;;;4.47;1.80;;;15.90;83.30;;;;;;5075344;28;20450;-60
2023/10/08 10:39:26;;;;;;;4.17;1.40;;;15.80;84.00;;;;;;5075044;28;20927;-60
2023/10/08 10:41:57;;;;;;;7.23;2.00;;;15.80;84.10;;;;;;5074481;28;20476;-61
2023/10/08 10:44:24;;;;;;;3.90;1.63;;;15.80;83.70;;;;;;5074504;28;20418;-60
2023/10/08 10:46:51;;;;;;;3.57;1.77;;;16.00;83.50;;;;;;5074479;28;20437;-60
2023/10/08 10:49:18;;;;;;;3.00;1.50;;;16.10;82.20;;;;;;5074757;28;20450;-60
2023/10/08 10:51:47;;;;;;;6.60;1.60;;;16.30;81.50;;;;;;5074340;28;20480;-58
2023/10/08 10:54:20;;;;;;;4.23;1.50;;;16.50;80.40;;;;;;5074256;28;20435;-59
2023/10/08 10:57:03;;;;;;;8.23;2.90;;;16.70;79.10;;;;;;5075224;28;20430;-58
2023/10/08 10:59:36;;;;;;;3.03;1.60;;;16.90;77.60;;;;;;5077867;28;20532;-59
2023/10/08 11:02:08;;;;;;;3.60;1.73;;;17.00;76.40;;;;;;5078500;28;20467;-59
2023/10/08 11:04:47;;;;;;;4.47;1.70;;;17.10;75.80;;;;;;5075988;28;20965;-59
2023/10/08 11:07:15;;;;;;;3.80;1.57;;;17.30;74.30;;;;;;5075367;28;20427;-59
2023/10/08 11:09:44;;;;;;;3.10;1.50;;;17.60;72.60;;;;;;5075132;28;20442;-59
2023/10/08 11:12:18;;;;;;;2.30;1.43;;;17.70;70.70;;;;;;5076994;28;20498;-59
2023/10/08 11:14:47;;;;;;;6.00;1.93;;;17.70;68.90;;;;;;5074124;28;20954;-60
2023/10/08 11:17:16;;;;;;;3.97;1.27;;;17.50;67.50;;;;;;5074960;28;20443;-60
2023/10/08 11:19:45;;;;;;;3.40;1.63;;;17.40;67.70;;;;;;5074205;28;20439;-59
2023/10/08 11:22:16;;;;;;;7.40;1.73;;;17.30;67.80;;;;;;5074630;28;20477;-60
2023/10/08 11:24:47;;;;;;;6.20;1.87;;;17.30;67.30;;;;;;5074193;28;20916;-60
2023/10/08 11:27:28;;;;;;;4.23;1.67;;;17.50;67.10;;;;;;5075276;28;20519;-60
2023/10/08 11:29:57;;;;;;;2.00;1.43;;;17.60;66.40;;;;;;5075621;28;20519;-60
2023/10/08 11:32:26;;;;;;;4.83;1.53;;;17.80;65.90;;;;;;5074193;28;20537;-60
2023/10/08 11:34:58;;;;;;;3.30;1.47;;;18.00;65.10;;;;;;5073540;28;20950;-60
2023/10/08 11:37:29;;;;;;;5.27;1.37;;;18.00;64.70;;;;;;5073724;28;20931;-60
2023/10/08 11:39:58;;;;;;;3.37;1.40;;;18.10;64.70;;;;;;5074255;28;20447;-59
2023/10/08 11:42:43;;;;;;;3.50;1.40;;;18.20;63.90;;;;;;5073595;28;20479;-59
2023/10/08 11:45:23;;;;;;;6.43;1.90;;;18.20;63.70;;;;;;5073597;28;20467;-60
2023/10/08 11:47:55;;;;;;;3.60;1.90;;;17.90;63.40;;;;;;5073382;28;20902;-59
2023/10/08 11:50:30;;;;;;;5.47;1.60;;;17.80;63.90;;;;;;5073316;28;20471;-60
2023/10/08 11:53:01;;;;;;;2.10;1.50;;;17.90;63.70;;;;;;5073635;28;20525;-60
2023/10/08 11:55:28;;;;;;;5.47;1.40;;;18.00;63.30;;;;;;5077679;28;20459;-60
2023/10/08 11:57:57;;;;;;;3.97;1.63;;;18.00;62.00;;;;;;5073458;28;20439;-59
2023/10/08 12:00:25;;;;;;;4.23;1.70;;;18.00;62.10;;;;;;5073608;28;20451;-60
2023/10/08 12:02:54;;;;;;;2.57;1.23;;;18.10;61.20;;;;;;5073528;28;20487;-58
2023/10/08 12:05:23;;;;;;;3.40;1.63;;;18.10;60.00;;;;;;5073382;28;20455;-59
2023/10/08 12:07:51;;;;;;;4.10;1.73;;;18.10;59.50;;;;;;5073578;28;20517;-59
2023/10/08 12:10:22;;;;;;;5.30;1.90;;;18.00;59.70;;;;;;5072941;28;20456;-61
2023/10/08 12:12:49;;;;;;;2.97;1.70;;;18.00;59.90;;;;;;5073015;28;20493;-61
2023/10/08 12:15:19;;;;;;;7.13;2.03;;;18.00;59.30;;;;;;5072878;28;20446;-59
2023/10/08 12:18:08;;;;;;;6.20;1.63;;;17.90;58.80;;;;;;5073089;28;20443;-61
2023/10/08 12:20:37;;;;;;;4.37;1.90;;;17.80;58.60;;;;;;5072382;28;20449;-60
2023/10/08 12:23:04;;;;;;;4.77;2.10;;;17.50;58.20;;;;;;5073309;28;20541;-60
2023/10/08 12:25:32;;;;;;;3.83;1.70;;;17.40;58.60;;;;;;5073127;28;20443;-61
2023/10/08 12:28:02;;;;;;;3.13;1.27;;;17.20;59.10;;;;;;5072455;28;20811;-61
2023/10/08 12:30:31;;;;;;;2.23;1.50;;;17.10;59.60;;;;;;5072848;28;20452;-60
2023/10/08 12:32:59;;;;;;;10.80;2.00;;;17.10;59.70;;;;;;5074843;28;20532;-60
2023/10/08 12:35:26;;;;;;;4.47;1.40;;;17.00;60.00;;;;;;5076880;28;20463;-60
2023/10/08 12:37:54;;;;;;;4.53;2.23;;;16.90;60.20;;;;;;5077010;28;20533;-61
2023/10/08 12:40:23;;;;;;;3.70;1.70;;;16.80;60.60;;;;;;5077162;28;20442;-60
2023/10/08 12:42:54;;;;;;;2.23;1.50;;;16.80;61.10;;;;;;5077258;28;20470;-62
2023/10/08 12:45:21;;;;;;;6.83;1.90;;;16.80;61.50;;;;;;5077394;28;20901;-59
2023/10/08 12:47:50;;;;;;;3.77;1.50;;;16.80;61.80;;;;;;5080426;28;20494;-60
2023/10/08 12:50:23;;;;;;;5.03;2.30;;;17.00;62.50;;;;;;5084051;28;20446;-60
2023/10/08 12:52:55;;;;;;;2.60;1.50;;;17.20;62.70;;;;;;5081003;28;20493;-59
2023/10/08 12:55:23;;;;;;;2.90;1.37;;;17.30;62.60;;;;;;5082094;28;20499;-59
2023/10/08 12:57:55;;;;;;;1.60;1.40;;;17.40;62.70;;;;;;5083518;28;20504;-61
2023/10/08 13:00:24;;;;;;;2.30;1.27;;;17.40;62.80;;;;;;5076892;28;20424;-59
2023/10/08 13:02:53;;;;;;;3.20;1.73;;;17.30;62.70;;;;;;5076495;28;20466;-61
2023/10/08 13:05:27;;;;;;;5.47;3.10;;;17.30;62.90;;;;;;5076495;28;20940;-59
2023/10/08 13:07:55;;;;;;;4.80;2.20;;;17.30;63.10;;;;;;5077090;28;20431;-59
2023/10/08 13:10:23;;;;;;;3.63;2.00;;;17.40;63.40;;;;;;5076898;28;20480;-59
2023/10/08 13:12:50;;;;;;;5.20;1.50;;;17.50;63.20;;;;;;5078428;28;20486;-59
2023/10/08 13:15:16;;;;;;;4.97;1.57;;;17.60;62.70;;;;;;5082959;28;20445;-59
2023/10/08 13:17:45;;;;;;;2.83;1.40;;;17.60;62.40;;;;;;5083309;28;20438;-59
2023/10/08 13:20:14;;;;;;;6.00;1.90;;;17.60;62.20;;;;;;5083279;28;20453;-59
2023/10/08 13:22:43;;;;;;;4.60;1.83;;;17.80;62.30;;;;;;5079318;28;20489;-60
2023/10/08 13:25:11;;;;;;;4.80;1.50;;;17.90;62.30;;;;;;5075830;28;20456;-61